Pineville, Louisiana
Current Conditions -  °F | °C
As of 6:10 PM on Sunday 21 Dec 2014 (Local Time) from KAEX Reporting Station
Overcast Overcast  
Wind Chill: 50°   Ceiling: 700
Heat Index: 50°   Visibility: 10mi
Dew Point: 47°   Wind: 12mph
Humidity: 89%   Direction: 130°SE
Pressure: 29.95"   Gusts: NA
Location:  31.32°N, 92.43°W
Report Text: KAEX 220010Z 13010KT 10SM BKN007 OVC090 10/08 A2995 RMK AO2 T01000083
Loading
Personal Weather Stations






























Interactive Weather Map New forecast layout! Learn more

10-Day Weather Forecast

Advertisements
Track Severe Weather on mobile